Time;durP1;ratioP1;P1;durP2;ratioP2;P2;SDS_P1;SDS_P2;PMS_P1;PMS_P2;Temp;Humidity;BMP_temperature;BMP_pressure;BME280_temperature;BME280_humidity;BME280_pressure;Samples;Min_cycle;Max_cycle;Signal;HPM_P1;HPM_P2
2021/05/09 00:01:38;;;;;;;3.08;1.90;;;21.40;45.40;;;;;;5031616;28;20033;-35
2021/05/09 00:04:04;;;;;;;2.85;1.80;;;21.40;45.40;;;;;;5028821;28;20036;-35
2021/05/09 00:06:29;;;;;;;2.60;1.83;;;21.40;45.50;;;;;;5028813;28;20084;-35
2021/05/09 00:08:56;;;;;;;4.05;2.42;;;21.40;45.40;;;;;;5030438;28;20053;-35
2021/05/09 00:11:22;;;;;;;2.67;1.80;;;21.40;45.50;;;;;;5029452;28;20025;-35
2021/05/09 00:13:48;;;;;;;3.13;1.63;;;21.40;45.50;;;;;;5031651;28;20405;-34
2021/05/09 00:16:14;;;;;;;4.25;1.95;;;21.40;45.50;;;;;;5031721;28;20025;-35
2021/05/09 00:18:39;;;;;;;2.75;1.70;;;21.40;45.40;;;;;;5029309;28;20038;-35
2021/05/09 00:21:05;;;;;;;2.72;1.70;;;21.40;45.50;;;;;;5031867;28;20022;-35
2021/05/09 00:23:31;;;;;;;3.00;2.13;;;21.40;45.40;;;;;;5030717;28;20446;-35
2021/05/09 00:25:57;;;;;;;3.88;1.80;;;21.40;45.50;;;;;;5031560;28;20109;-35
2021/05/09 00:28:24;;;;;;;2.70;1.60;;;21.30;45.40;;;;;;5030378;28;20037;-35
2021/05/09 00:30:49;;;;;;;3.00;1.70;;;21.40;45.40;;;;;;5031396;28;20061;-34
2021/05/09 00:33:15;;;;;;;2.55;1.60;;;21.30;45.40;;;;;;5031603;28;20578;-44
2021/05/09 00:35:41;;;;;;;2.58;1.70;;;21.30;45.30;;;;;;5030921;28;20099;-34
2021/05/09 00:38:07;;;;;;;2.47;1.70;;;21.30;45.40;;;;;;5031338;28;20104;-34
2021/05/09 00:40:33;;;;;;;2.42;1.73;;;21.30;45.40;;;;;;5029381;28;20022;-35
2021/05/09 00:42:59;;;;;;;4.00;1.92;;;21.30;45.40;;;;;;5029803;28;20079;-35
2021/05/09 00:45:24;;;;;;;2.35;1.73;;;21.30;45.40;;;;;;5030296;28;20037;-35
2021/05/09 00:47:50;;;;;;;1.80;1.40;;;21.30;45.40;;;;;;5031080;28;20478;-34
2021/05/09 00:50:18;;;;;;;2.15;1.67;;;21.30;45.40;;;;;;5031467;28;20087;-46
2021/05/09 00:52:46;;;;;;;2.63;1.90;;;21.30;45.40;;;;;;5030984;28;20121;-34
2021/05/09 00:55:12;;;;;;;2.55;1.65;;;21.30;45.40;;;;;;5031201;28;20075;-35
2021/05/09 00:57:40;;;;;;;2.50;1.42;;;21.30;45.50;;;;;;5030243;28;20087;-35
2021/05/09 01:00:08;;;;;;;3.20;1.80;;;21.30;45.40;;;;;;5029782;28;20067;-35
2021/05/09 01:02:34;;;;;;;2.05;1.50;;;21.30;45.50;;;;;;5032677;28;20040;-35
2021/05/09 01:05:00;;;;;;;2.42;1.50;;;21.30;45.50;;;;;;5034708;28;20025;-36
2021/05/09 01:07:26;;;;;;;1.98;1.55;;;21.30;45.50;;;;;;5033746;28;20022;-35
2021/05/09 01:09:52;;;;;;;2.10;1.40;;;21.20;45.40;;;;;;5034402;28;20037;-34
2021/05/09 01:12:18;;;;;;;1.85;1.50;;;21.30;45.50;;;;;;5032632;28;20025;-44
2021/05/09 01:14:44;;;;;;;2.33;1.50;;;21.20;45.40;;;;;;5034014;28;20030;-34
2021/05/09 01:17:11;;;;;;;2.22;1.63;;;21.20;45.40;;;;;;5034422;28;20021;-35
2021/05/09 01:19:39;;;;;;;2.33;1.70;;;21.20;45.50;;;;;;5032189;28;20117;-35
2021/05/09 01:22:06;;;;;;;2.65;1.33;;;21.20;45.40;;;;;;5033086;28;20053;-34
2021/05/09 01:24:32;;;;;;;3.42;1.30;;;21.20;45.40;;;;;;5032456;28;20030;-35
2021/05/09 01:26:58;;;;;;;1.75;1.38;;;21.20;45.40;;;;;;5031797;28;20053;-34
2021/05/09 01:29:24;;;;;;;2.47;1.50;;;21.20;45.40;;;;;;5031111;28;20043;-35
2021/05/09 01:31:50;;;;;;;1.67;1.33;;;21.20;45.40;;;;;;5031710;28;20075;-35
2021/05/09 01:34:16;;;;;;;1.73;1.20;;;21.20;45.40;;;;;;5031695;28;20466;-34
2021/05/09 01:36:42;;;;;;;3.35;1.75;;;21.20;45.50;;;;;;5014551;28;20046;-34
2021/05/09 01:39:08;;;;;;;2.28;1.40;;;21.20;45.40;;;;;;5031827;28;20033;-35
2021/05/09 01:41:34;;;;;;;2.63;1.60;;;21.20;45.40;;;;;;5030927;28;20145;-36
2021/05/09 01:43:59;;;;;;;1.75;1.15;;;21.20;45.40;;;;;;5031569;28;20065;-34
2021/05/09 01:46:25;;;;;;;2.17;1.52;;;21.20;45.40;;;;;;5030892;28;20107;-35
2021/05/09 01:48:51;;;;;;;1.95;1.30;;;21.20;45.40;;;;;;4998729;28;20105;-34
2021/05/09 01:51:18;;;;;;;2.10;1.40;;;21.20;45.40;;;;;;5031403;28;20049;-34
2021/05/09 01:53:44;;;;;;;3.45;1.85;;;21.20;45.40;;;;;;5028516;28;20045;-35
2021/05/09 01:56:09;;;;;;;1.60;1.20;;;21.20;45.40;;;;;;5014857;28;20095;-34
2021/05/09 01:58:35;;;;;;;3.30;1.50;;;21.20;45.40;;;;;;5031740;28;20053;-34
2021/05/09 02:01:01;;;;;;;3.33;1.63;;;21.20;45.40;;;;;;5034086;28;20030;-34
2021/05/09 02:03:27;;;;;;;2.03;1.40;;;21.20;45.40;;;;;;5031446;28;20037;-35
2021/05/09 02:05:52;;;;;;;1.98;1.27;;;21.10;45.30;;;;;;5033326;28;20021;-35
2021/05/09 02:08:18;;;;;;;2.28;1.13;;;21.20;45.40;;;;;;5033195;28;20029;-46
2021/05/09 02:10:44;;;;;;;5.20;1.60;;;21.20;45.40;;;;;;5031904;28;20025;-35
2021/05/09 02:13:09;;;;;;;1.92;1.42;;;21.20;45.40;;;;;;5032792;28;20347;-34
2021/05/09 02:15:35;;;;;;;1.80;1.17;;;21.20;45.30;;;;;;5032436;28;20064;-34
2021/05/09 02:18:01;;;;;;;2.15;1.77;;;21.10;45.30;;;;;;5031752;28;20025;-35
2021/05/09 02:20:27;;;;;;;2.97;1.40;;;21.20;45.40;;;;;;5032546;28;20022;-35
2021/05/09 02:22:52;;;;;;;1.80;1.20;;;21.10;45.30;;;;;;5032029;28;20478;-34
2021/05/09 02:25:18;;;;;;;1.60;1.10;;;21.10;45.30;;;;;;5032011;28;20030;-44
2021/05/09 02:27:44;;;;;;;2.00;1.42;;;21.10;45.30;;;;;;5031124;28;20022;-34
2021/05/09 02:30:10;;;;;;;1.33;1.00;;;21.10;45.30;;;;;;5031816;28;20481;-35
2021/05/09 02:32:35;;;;;;;1.88;1.40;;;21.10;45.30;;;;;;5031041;28;20437;-34
2021/05/09 02:35:01;;;;;;;1.80;1.35;;;21.10;45.30;;;;;;5031804;28;20025;-35
2021/05/09 02:37:27;;;;;;;2.00;1.38;;;21.10;45.30;;;;;;5030981;28;20159;-34
2021/05/09 02:39:53;;;;;;;3.47;1.20;;;21.10;45.30;;;;;;5031747;28;20025;-34
2021/05/09 02:42:18;;;;;;;2.92;1.10;;;21.10;45.30;;;;;;5031397;28;20116;-43
2021/05/09 02:44:44;;;;;;;1.80;1.10;;;21.10;45.30;;;;;;5032071;28;20109;-34
2021/05/09 02:47:10;;;;;;;1.63;1.30;;;21.10;45.30;;;;;;5027305;28;20148;-35
2021/05/09 02:49:36;;;;;;;1.20;0.90;;;21.10;45.30;;;;;;5031968;28;20076;-35
2021/05/09 02:52:02;;;;;;;1.08;0.90;;;21.10;45.30;;;;;;5064097;28;20025;-35
2021/05/09 02:54:28;;;;;;;1.73;1.10;;;21.10;45.30;;;;;;5031859;28;20033;-35
2021/05/09 02:56:54;;;;;;;1.33;1.02;;;21.10;45.30;;;;;;5032330;28;20053;-35
2021/05/09 02:59:20;;;;;;;1.42;1.20;;;21.10;45.30;;;;;;5063638;28;20506;-45
2021/05/09 03:01:46;;;;;;;1.52;1.10;;;21.10;45.30;;;;;;5032195;28;20386;-36
2021/05/09 03:04:11;;;;;;;1.92;1.27;;;21.10;45.30;;;;;;5032248;28;20029;-35
2021/05/09 03:06:37;;;;;;;1.50;1.00;;;21.10;45.30;;;;;;5031210;28;20037;-35
2021/05/09 03:09:04;;;;;;;2.45;1.40;;;21.10;45.30;;;;;;5032330;28;20063;-35
2021/05/09 03:11:30;;;;;;;1.70;1.15;;;21.10;45.30;;;;;;5031604;28;20083;-34
2021/05/09 03:13:56;;;;;;;1.23;1.00;;;21.10;45.30;;;;;;5032214;28;20454;-34
2021/05/09 03:16:23;;;;;;;2.30;1.30;;;21.10;45.30;;;;;;5031463;28;20030;-46
2021/05/09 03:18:49;;;;;;;1.45;1.15;;;21.10;45.30;;;;;;5031962;28;20592;-34
2021/05/09 03:21:16;;;;;;;2.00;1.30;;;21.10;45.30;;;;;;5031800;28;20029;-34
2021/05/09 03:23:42;;;;;;;1.48;1.10;;;21.10;45.30;;;;;;5029700;28;20025;-34
2021/05/09 03:26:08;;;;;;;2.55;1.35;;;21.10;45.20;;;;;;5032486;28;20519;-34
2021/05/09 03:28:33;;;;;;;2.75;1.10;;;21.10;44.70;;;;;;5031437;28;20103;-34
2021/05/09 03:30:59;;;;;;;1.80;1.20;;;21.10;44.80;;;;;;5031945;28;20372;-34
2021/05/09 03:33:25;;;;;;;1.35;0.90;;;21.10;44.80;;;;;;5031293;28;20090;-35
2021/05/09 03:35:50;;;;;;;1.92;1.30;;;21.10;44.90;;;;;;5032383;28;20025;-35
2021/05/09 03:38:16;;;;;;;1.42;1.05;;;21.10;44.90;;;;;;5031750;28;20087;-39
2021/05/09 03:40:42;;;;;;;1.33;1.00;;;21.10;44.90;;;;;;5027563;28;20066;-34
2021/05/09 03:43:08;;;;;;;1.60;1.20;;;21.10;44.90;;;;;;5028425;28;20421;-34
2021/05/09 03:45:34;;;;;;;2.05;1.02;;;21.10;44.90;;;;;;5063006;28;20037;-35
2021/05/09 03:47:59;;;;;;;3.22;1.13;;;21.10;44.90;;;;;;5031570;28;20043;-35
2021/05/09 03:50:25;;;;;;;2.25;1.08;;;21.10;44.90;;;;;;5030965;28;20387;-35
2021/05/09 03:52:51;;;;;;;3.70;1.25;;;21.10;44.90;;;;;;5031548;28;20528;-35
2021/05/09 03:55:17;;;;;;;1.73;1.10;;;21.10;44.90;;;;;;5063439;28;20030;-34
2021/05/09 03:57:43;;;;;;;1.98;1.17;;;21.00;44.90;;;;;;5030732;28;20070;-35
2021/05/09 04:00:09;;;;;;;1.63;1.15;;;21.10;44.90;;;;;;5031405;28;20037;-34
2021/05/09 04:02:35;;;;;;;1.42;0.95;;;21.10;44.90;;;;;;5062455;28;20029;-35
2021/05/09 04:05:01;;;;;;;1.38;0.90;;;21.00;44.90;;;;;;5031471;28;20469;-35
2021/05/09 04:07:26;;;;;;;2.60;1.17;;;21.00;44.90;;;;;;5030733;28;20030;-34
2021/05/09 04:09:52;;;;;;;1.40;1.10;;;21.00;44.90;;;;;;5030345;28;20363;-38
2021/05/09 04:12:18;;;;;;;1.40;1.00;;;21.00;44.90;;;;;;5031975;28;20470;-34
2021/05/09 04:14:43;;;;;;;1.67;1.17;;;21.00;44.90;;;;;;5030773;28;20032;-35
2021/05/09 04:17:09;;;;;;;1.15;0.90;;;21.00;44.90;;;;;;5031610;28;20079;-34
2021/05/09 04:19:35;;;;;;;1.98;1.08;;;21.00;44.90;;;;;;5030452;28;20483;-34
2021/05/09 04:22:01;;;;;;;1.48;0.90;;;21.00;44.90;;;;;;5031593;28;20080;-35
2021/05/09 04:24:27;;;;;;;3.42;1.00;;;21.10;44.90;;;;;;5030654;28;20033;-34
2021/05/09 04:26:52;;;;;;;1.85;1.30;;;21.00;44.90;;;;;;5031437;28;20029;-35
2021/05/09 04:29:18;;;;;;;1.95;1.15;;;21.00;44.90;;;;;;5031538;28;20038;-35
2021/05/09 04:31:44;;;;;;;1.92;1.02;;;21.00;44.90;;;;;;5030457;28;20028;-34
2021/05/09 04:34:09;;;;;;;1.70;1.23;;;21.00;44.90;;;;;;5029869;28;20061;-40
2021/05/09 04:36:35;;;;;;;2.28;1.00;;;21.00;44.90;;;;;;5031072;28;20029;-35
2021/05/09 04:39:01;;;;;;;1.90;1.02;;;21.00;44.90;;;;;;5035067;28;20029;-34
2021/05/09 04:41:27;;;;;;;1.40;1.00;;;21.00;44.90;;;;;;5034359;28;20441;-35
2021/05/09 04:43:53;;;;;;;1.92;1.10;;;21.00;45.60;;;;;;5035062;28;20064;-34
2021/05/09 04:46:19;;;;;;;2.13;0.98;;;21.00;45.00;;;;;;5035201;28;20037;-34
2021/05/09 04:48:44;;;;;;;1.77;1.38;;;21.00;45.60;;;;;;5032977;28;20029;-35
2021/05/09 04:51:10;;;;;;;1.42;0.95;;;21.00;45.00;;;;;;5034954;28;20022;-33
2021/05/09 04:53:39;;;;;;;1.67;1.00;;;21.00;45.00;;;;;;5032909;28;20037;-34
2021/05/09 04:56:09;;;;;;;3.65;1.55;;;21.00;45.00;;;;;;5034711;28;20022;-35
2021/05/09 04:58:39;;;;;;;1.13;0.90;;;21.00;45.00;;;;;;5033602;28;20049;-35
2021/05/09 05:01:09;;;;;;;1.83;1.05;;;21.00;45.00;;;;;;5066452;28;20038;-35
2021/05/09 05:03:36;;;;;;;2.17;1.08;;;21.00;45.00;;;;;;5033781;28;20025;-34
2021/05/09 05:06:02;;;;;;;4.57;1.85;;;21.00;45.00;;;;;;5034838;28;20057;-34
2021/05/09 05:08:31;;;;;;;1.70;1.02;;;21.00;45.00;;;;;;5065741;28;20112;-35
2021/05/09 05:10:56;;;;;;;1.33;1.02;;;21.00;45.00;;;;;;5034876;28;20036;-35
2021/05/09 05:13:24;;;;;;;1.83;1.33;;;21.00;45.10;;;;;;5066124;28;20030;-47
2021/05/09 05:15:53;;;;;;;1.15;1.05;;;21.00;45.10;;;;;;5066496;28;20025;-34
2021/05/09 05:18:19;;;;;;;4.28;1.30;;;21.00;45.10;;;;;;5034646;28;20021;-34
2021/05/09 05:20:45;;;;;;;1.30;1.10;;;21.00;45.10;;;;;;5065434;28;20048;-35
2021/05/09 05:23:13;;;;;;;2.38;1.48;;;21.00;45.20;;;;;;5066494;28;20430;-34
2021/05/09 05:25:39;;;;;;;2.65;1.30;;;21.00;45.10;;;;;;5033305;28;20133;-34
2021/05/09 05:28:05;;;;;;;3.15;1.30;;;21.00;45.10;;;;;;5034133;28;20044;-34
2021/05/09 05:30:31;;;;;;;2.15;1.23;;;21.00;45.10;;;;;;5030356;28;20037;-35
2021/05/09 05:32:57;;;;;;;1.83;1.30;;;21.00;45.10;;;;;;5034169;28;20095;-34
2021/05/09 05:35:24;;;;;;;2.33;1.42;;;21.00;45.20;;;;;;5033643;28;20029;-46
2021/05/09 05:37:51;;;;;;;3.58;1.25;;;21.00;45.20;;;;;;5033889;28;20029;-34
2021/05/09 05:40:17;;;;;;;1.77;1.17;;;21.00;45.20;;;;;;5065913;28;20033;-37
2021/05/09 05:42:43;;;;;;;1.40;1.10;;;21.00;45.20;;;;;;5033213;28;20463;-34
2021/05/09 05:45:09;;;;;;;1.55;1.35;;;21.00;45.20;;;;;;5033841;28;20035;-34
2021/05/09 05:47:35;;;;;;;1.95;1.23;;;21.00;45.20;;;;;;5065037;28;20026;-35
2021/05/09 05:50:01;;;;;;;1.45;1.13;;;21.00;45.20;;;;;;5033790;28;20021;-34
2021/05/09 05:52:27;;;;;;;2.13;1.25;;;21.00;45.20;;;;;;5032785;28;20033;-35
2021/05/09 05:54:53;;;;;;;1.80;1.30;;;21.00;45.20;;;;;;5033473;28;20036;-35
2021/05/09 05:57:21;;;;;;;1.95;1.05;;;21.00;45.20;;;;;;5065573;28;20039;-34
2021/05/09 05:59:47;;;;;;;1.75;1.17;;;21.00;45.20;;;;;;5032790;28;20108;-34
2021/05/09 06:02:12;;;;;;;2.80;1.30;;;21.00;45.30;;;;;;5033615;28;20459;-34
2021/05/09 06:04:39;;;;;;;1.50;1.00;;;21.00;45.20;;;;;;5032798;28;20471;-35
2021/05/09 06:07:07;;;;;;;1.90;1.30;;;21.00;45.20;;;;;;5033219;28;20021;-35
2021/05/09 06:09:32;;;;;;;1.63;1.20;;;21.00;45.20;;;;;;5032809;28;20040;-36
2021/05/09 06:11:58;;;;;;;1.50;1.10;;;20.90;45.10;;;;;;5031839;28;20025;-34
2021/05/09 06:14:24;;;;;;;3.08;1.20;;;21.00;45.20;;;;;;5031634;28;20449;-43
2021/05/09 06:16:50;;;;;;;1.98;1.10;;;21.00;45.30;;;;;;5033358;28;20029;-35
2021/05/09 06:19:15;;;;;;;1.88;1.23;;;21.00;45.20;;;;;;5033718;28;20051;-34
2021/05/09 06:21:41;;;;;;;2.30;1.30;;;21.00;45.30;;;;;;5032853;28;20528;-35
2021/05/09 06:24:07;;;;;;;2.10;1.05;;;21.00;45.30;;;;;;5026889;28;20060;-35
2021/05/09 06:26:33;;;;;;;2.17;1.20;;;21.00;45.30;;;;;;5032007;28;20037;-34
2021/05/09 06:28:58;;;;;;;3.10;1.17;;;21.00;45.20;;;;;;5064951;28;20029;-35
2021/05/09 06:31:25;;;;;;;3.08;1.23;;;21.00;45.10;;;;;;5064521;28;20034;-47
2021/05/09 06:33:51;;;;;;;1.92;1.15;;;21.00;45.10;;;;;;5032857;28;20096;-35
2021/05/09 06:36:16;;;;;;;1.40;1.10;;;21.00;45.20;;;;;;5032780;28;20491;-35
2021/05/09 06:38:42;;;;;;;2.05;1.20;;;21.00;45.10;;;;;;5031951;28;20026;-35
2021/05/09 06:41:08;;;;;;;1.40;0.93;;;21.00;45.10;;;;;;5032778;28;20059;-35
2021/05/09 06:43:34;;;;;;;2.10;1.15;;;21.00;45.30;;;;;;5064109;28;20076;-35
2021/05/09 06:46:01;;;;;;;2.00;1.30;;;21.00;45.30;;;;;;5032950;28;20112;-34
2021/05/09 06:48:26;;;;;;;2.60;1.23;;;21.00;45.40;;;;;;5030668;28;20030;-45
2021/05/09 06:50:52;;;;;;;2.47;1.02;;;21.10;45.40;;;;;;5032806;28;20033;-33
2021/05/09 06:53:18;;;;;;;2.28;1.00;;;21.10;45.40;;;;;;5031142;28;20036;-39
2021/05/09 06:55:48;;;;;;;3.42;1.20;;;21.10;45.50;;;;;;5068326;28;20028;-35
2021/05/09 06:58:14;;;;;;;1.50;1.20;;;21.10;45.50;;;;;;5051253;28;20045;-35
2021/05/09 07:00:39;;;;;;;1.70;1.30;;;21.10;45.50;;;;;;5049965;28;20051;-34
2021/05/09 07:03:05;;;;;;;3.85;1.30;;;21.10;45.50;;;;;;5052020;28;20032;-35
2021/05/09 07:05:31;;;;;;;2.78;1.10;;;21.10;45.50;;;;;;5051887;28;20053;-35
2021/05/09 07:07:57;;;;;;;1.58;1.10;;;21.10;45.50;;;;;;5012798;28;20033;-35
2021/05/09 07:10:25;;;;;;;2.72;1.17;;;21.10;45.40;;;;;;5011532;28;20029;-43
2021/05/09 07:12:56;;;;;;;2.15;1.00;;;21.10;45.40;;;;;;5010912;28;20045;-34
2021/05/09 07:15:28;;;;;;;1.52;1.15;;;21.20;45.60;;;;;;5012695;28;20022;-35
2021/05/09 07:18:02;;;;;;;3.60;1.20;;;21.20;45.80;;;;;;5016232;28;20083;-35
2021/05/09 07:20:30;;;;;;;2.55;1.35;;;21.20;45.80;;;;;;5011284;28;20040;-39
2021/05/09 07:22:57;;;;;;;3.78;1.15;;;21.20;45.90;;;;;;5012051;28;20476;-35
2021/05/09 07:25:23;;;;;;;1.65;1.20;;;21.20;46.00;;;;;;5018070;28;20025;-34
2021/05/09 07:27:49;;;;;;;1.92;1.40;;;21.30;45.80;;;;;;5031166;28;20455;-35
2021/05/09 07:30:15;;;;;;;1.65;1.02;;;21.20;45.50;;;;;;5030834;28;20034;-35
2021/05/09 07:32:41;;;;;;;3.35;1.33;;;21.20;45.40;;;;;;5031344;28;20029;-37
2021/05/09 07:35:07;;;;;;;3.10;1.13;;;21.20;45.40;;;;;;5031606;28;20032;-33
2021/05/09 07:37:33;;;;;;;2.30;1.17;;;21.20;45.20;;;;;;5031137;28;20474;-33
2021/05/09 07:39:58;;;;;;;2.45;1.50;;;21.20;45.20;;;;;;5031629;28;20026;-33
2021/05/09 07:42:24;;;;;;;3.25;1.10;;;21.20;45.30;;;;;;5030397;28;20528;-33
2021/05/09 07:44:54;;;;;;;2.10;1.25;;;21.20;45.20;;;;;;5030026;28;20034;-33
2021/05/09 07:47:20;;;;;;;1.90;1.20;;;21.20;45.20;;;;;;5031581;28;20402;-34
2021/05/09 07:49:45;;;;;;;1.80;1.10;;;21.20;45.10;;;;;;5050745;28;20021;-33
2021/05/09 07:52:11;;;;;;;1.83;1.20;;;21.20;45.30;;;;;;5050597;28;20032;-33
2021/05/09 07:54:38;;;;;;;2.75;1.13;;;21.20;45.40;;;;;;5048539;28;20402;-34
2021/05/09 07:57:04;;;;;;;1.80;1.17;;;21.20;45.40;;;;;;5031434;28;20034;-34
2021/05/09 07:59:32;;;;;;;2.28;0.80;;;21.20;45.30;;;;;;5029642;28;20057;-37
2021/05/09 08:01:58;;;;;;;2.33;0.90;;;21.20;45.30;;;;;;5037858;28;20033;-34
2021/05/09 08:04:25;;;;;;;1.67;0.90;;;21.20;45.30;;;;;;5050994;28;20040;-34
2021/05/09 08:06:50;;;;;;;1.52;1.10;;;21.20;45.20;;;;;;5038691;28;20394;-34
2021/05/09 08:09:16;;;;;;;1.13;0.73;;;21.20;45.30;;;;;;5031005;28;20481;-33
2021/05/09 08:11:42;;;;;;;1.20;0.90;;;21.30;45.40;;;;;;5030368;28;20374;-35
2021/05/09 08:14:07;;;;;;;1.23;0.82;;;21.30;45.50;;;;;;5034571;28;20497;-33
2021/05/09 08:16:33;;;;;;;1.65;1.00;;;21.30;45.70;;;;;;5033548;28;20099;-33
2021/05/09 08:18:59;;;;;;;2.20;1.00;;;21.30;45.70;;;;;;5035831;28;20045;-33
2021/05/09 08:21:24;;;;;;;1.50;0.93;;;21.30;45.80;;;;;;5035197;28;20033;-33
2021/05/09 08:23:50;;;;;;;2.00;1.30;;;21.30;46.00;;;;;;5034676;28;20816;-33
2021/05/09 08:26:15;;;;;;;3.40;1.02;;;21.30;46.20;;;;;;5035318;28;20389;-36
2021/05/09 08:28:42;;;;;;;1.83;1.10;;;21.30;46.40;;;;;;5032982;28;20025;-33
2021/05/09 08:31:10;;;;;;;1.38;1.10;;;21.20;46.20;;;;;;5034041;28;20470;-38
2021/05/09 08:33:36;;;;;;;2.97;1.10;;;21.30;46.20;;;;;;5034498;28;20421;-34
2021/05/09 08:36:02;;;;;;;3.38;1.10;;;21.30;46.70;;;;;;5017634;28;20026;-33
2021/05/09 08:38:28;;;;;;;1.98;1.20;;;21.30;47.10;;;;;;5033886;28;20039;-42
2021/05/09 08:40:53;;;;;;;2.67;1.10;;;21.40;47.90;;;;;;5034460;28;20377;-33
2021/05/09 08:43:19;;;;;;;1.90;1.10;;;21.40;47.40;;;;;;5034566;28;20033;-33
2021/05/09 08:45:45;;;;;;;1.40;1.05;;;21.40;47.30;;;;;;5033002;28;20512;-33
2021/05/09 08:48:19;;;;;;;2.63;1.25;;;21.40;47.10;;;;;;5033913;28;20026;-33
2021/05/09 08:50:45;;;;;;;4.00;0.90;;;21.40;46.20;;;;;;5033890;28;20163;-37
2021/05/09 08:53:15;;;;;;;2.85;1.13;;;21.50;47.20;;;;;;5034247;28;20116;-35
2021/05/09 08:55:40;;;;;;;5.25;1.20;;;21.50;46.70;;;;;;5032615;28;20032;-35
2021/05/09 08:58:09;;;;;;;6.22;1.10;;;21.50;46.70;;;;;;5033279;28;20049;-34
2021/05/09 09:00:34;;;;;;;3.28;1.10;;;21.60;47.40;;;;;;5033900;28;20139;-34
2021/05/09 09:03:03;;;;;;;2.92;1.05;;;21.60;46.70;;;;;;5034776;28;20124;-35
2021/05/09 09:05:38;;;;;;;3.15;1.00;;;21.60;46.60;;;;;;5033518;28;20036;-46
2021/05/09 09:08:04;;;;;;;1.98;1.00;;;21.60;47.50;;;;;;5017766;28;20037;-34
2021/05/09 09:10:33;;;;;;;2.70;1.20;;;21.60;47.60;;;;;;5014355;28;20026;-45
2021/05/09 09:13:00;;;;;;;2.85;1.42;;;21.60;47.40;;;;;;5029655;28;20034;-35
2021/05/09 09:15:52;;;;;;;3.78;2.13;;;21.60;47.60;;;;;;5014288;28;20069;-34
2021/05/09 09:18:35;;;;;;;3.50;1.35;;;21.70;48.10;;;;;;5046621;28;20033;-34
2021/05/09 09:21:19;;;;;;;3.63;1.30;;;21.70;47.30;;;;;;5029397;28;20029;-35
2021/05/09 09:23:47;;;;;;;3.72;1.20;;;21.70;47.60;;;;;;5013766;28;20117;-34
2021/05/09 09:26:33;;;;;;;2.85;1.30;;;21.70;47.20;;;;;;5028144;28;20026;-35
2021/05/09 09:29:01;;;;;;;2.95;1.45;;;21.70;47.30;;;;;;5033902;28;20041;-34
2021/05/09 09:31:43;;;;;;;2.72;1.35;;;21.80;47.00;;;;;;5032756;28;20567;-35
2021/05/09 09:34:09;;;;;;;2.20;1.13;;;21.70;46.90;;;;;;5032480;28;20063;-34
2021/05/09 09:36:36;;;;;;;2.58;1.75;;;21.70;46.80;;;;;;5040379;28;20037;-35
2021/05/09 09:39:03;;;;;;;4.22;1.20;;;21.70;46.60;;;;;;5053824;28;20021;-34
2021/05/09 09:41:29;;;;;;;4.03;1.63;;;21.80;47.00;;;;;;5053724;28;20485;-44
2021/05/09 09:44:06;;;;;;;2.35;1.30;;;21.80;47.00;;;;;;5053162;28;20029;-35
2021/05/09 09:46:35;;;;;;;3.55;1.40;;;21.80;46.70;;;;;;5052934;28;20467;-42
2021/05/09 09:49:03;;;;;;;2.10;1.20;;;21.80;46.90;;;;;;5052569;28;20025;-35
2021/05/09 09:51:29;;;;;;;3.03;1.15;;;21.80;47.40;;;;;;5053856;28;20378;-42
2021/05/09 09:53:56;;;;;;;3.85;1.33;;;21.80;47.10;;;;;;5053050;28;20030;-35
2021/05/09 09:56:26;;;;;;;1.88;1.13;;;21.80;46.80;;;;;;5037286;28;20380;-34
2021/05/09 09:58:58;;;;;;;1.95;1.35;;;21.90;46.40;;;;;;5032736;28;20041;-34
2021/05/09 10:01:27;;;;;;;3.15;1.00;;;21.90;46.80;;;;;;5025770;28;20104;-34
2021/05/09 10:03:56;;;;;;;11.13;1.45;;;21.90;46.80;;;;;;5032227;28;20618;-34
2021/05/09 10:06:23;;;;;;;7.32;1.45;;;21.90;46.90;;;;;;5059394;28;20488;-35
2021/05/09 10:08:50;;;;;;;9.55;1.30;;;21.90;46.70;;;;;;5032582;28;20027;-34
2021/05/09 10:11:17;;;;;;;6.93;1.02;;;21.90;46.90;;;;;;5032228;28;20384;-34
2021/05/09 10:13:43;;;;;;;8.27;1.52;;;21.90;46.90;;;;;;5032531;28;20055;-35
2021/05/09 10:16:09;;;;;;;3.67;1.10;;;21.90;47.00;;;;;;5033226;28;20025;-34
2021/05/09 10:18:40;;;;;;;9.85;1.33;;;21.90;47.30;;;;;;5031496;28;20022;-35
2021/05/09 10:21:06;;;;;;;6.78;1.13;;;22.00;47.20;;;;;;5033366;28;20398;-34
2021/05/09 10:23:31;;;;;;;3.72;0.93;;;21.90;47.20;;;;;;5031663;28;20030;-43
2021/05/09 10:25:59;;;;;;;2.22;1.10;;;22.00;47.10;;;;;;5032519;28;20068;-34
2021/05/09 10:28:45;;;;;;;4.68;1.17;;;22.00;47.30;;;;;;5031913;28;20034;-34
2021/05/09 10:31:27;;;;;;;5.93;0.90;;;22.00;47.30;;;;;;5044858;28;20047;-35
2021/05/09 10:33:53;;;;;;;4.78;1.17;;;22.10;47.30;;;;;;5033482;28;20266;-35
2021/05/09 10:36:18;;;;;;;3.45;1.10;;;22.10;47.40;;;;;;5033412;28;20096;-34
2021/05/09 10:39:12;;;;;;;4.22;1.10;;;22.00;47.40;;;;;;5032402;28;20032;-34
2021/05/09 10:41:58;;;;;;;3.97;0.93;;;22.00;47.10;;;;;;5031000;28;20026;-35
2021/05/09 10:44:47;;;;;;;1.73;0.90;;;22.00;47.00;;;;;;5032817;28;20052;-34
2021/05/09 10:47:31;;;;;;;2.13;1.10;;;22.10;47.00;;;;;;5030729;28;20029;-35
2021/05/09 10:50:15;;;;;;;4.93;1.02;;;22.10;46.90;;;;;;5030745;28;20025;-35
2021/05/09 10:52:45;;;;;;;2.17;0.90;;;22.10;46.70;;;;;;5030678;28;20091;-34
2021/05/09 10:55:36;;;;;;;2.47;1.00;;;22.10;46.80;;;;;;5028883;28;20363;-35
2021/05/09 10:58:10;;;;;;;1.02;0.80;;;22.20;46.60;;;;;;5031364;28;20049;-34
2021/05/09 11:00:57;;;;;;;2.10;1.00;;;22.10;46.50;;;;;;5012751;28;20029;-45
2021/05/09 11:03:43;;;;;;;2.25;0.80;;;22.10;46.40;;;;;;5032150;28;20042;-36
2021/05/09 11:06:09;;;;;;;2.38;1.00;;;22.20;46.40;;;;;;5029049;28;20034;-34
2021/05/09 11:08:53;;;;;;;2.78;0.90;;;22.20;46.40;;;;;;5029965;28;20028;-46
2021/05/09 11:11:25;;;;;;;1.05;0.80;;;22.20;46.30;;;;;;5030384;28;20378;-34
2021/05/09 11:14:08;;;;;;;2.38;0.90;;;22.20;46.20;;;;;;5030397;28;20083;-34
2021/05/09 11:16:44;;;;;;;2.65;1.10;;;22.20;46.30;;;;;;5048261;28;20037;-46
2021/05/09 11:19:17;;;;;;;1.13;0.88;;;22.20;46.30;;;;;;5050019;28;20033;-34
2021/05/09 11:21:51;;;;;;;1.83;0.90;;;22.20;46.10;;;;;;5048814;28;20036;-34
2021/05/09 11:24:27;;;;;;;2.40;0.70;;;22.20;46.10;;;;;;5029548;28;20033;-34
2021/05/09 11:27:04;;;;;;;2.10;0.90;;;22.10;46.70;;;;;;5027193;28;20510;-34
2021/05/09 11:29:30;;;;;;;2.00;0.68;;;22.20;46.10;;;;;;5029849;28;20462;-43
2021/05/09 11:32:15;;;;;;;1.95;0.90;;;22.20;46.00;;;;;;5028293;28;20041;-34
2021/05/09 11:34:59;;;;;;;4.53;0.95;;;22.10;45.90;;;;;;5029039;28;20032;-35
2021/05/09 11:37:37;;;;;;;2.50;0.80;;;22.20;46.00;;;;;;5028141;28;20116;-34
2021/05/09 11:40:05;;;;;;;3.15;0.95;;;22.20;46.00;;;;;;5028999;28;20030;-34
2021/05/09 11:42:31;;;;;;;1.75;0.85;;;22.20;45.90;;;;;;5027786;28;20032;-36
2021/05/09 11:44:59;;;;;;;3.25;0.73;;;22.20;45.80;;;;;;5027797;28;20116;-35
2021/05/09 11:47:27;;;;;;;4.38;0.80;;;22.20;45.90;;;;;;5030228;28;20552;-34
2021/05/09 11:50:05;;;;;;;2.70;0.90;;;22.20;45.80;;;;;;5026449;28;20172;-34
2021/05/09 11:52:40;;;;;;;3.10;1.00;;;22.20;45.70;;;;;;5031294;28;20083;-34
2021/05/09 11:55:08;;;;;;;2.17;0.70;;;22.20;45.70;;;;;;5030484;28;20555;-34
2021/05/09 11:57:34;;;;;;;1.30;0.85;;;22.20;46.40;;;;;;5030213;28;20037;-35
2021/05/09 12:00:13;;;;;;;0.70;0.60;;;22.30;45.70;;;;;;5031610;28;20037;-34
2021/05/09 12:02:46;;;;;;;1.15;0.65;;;22.20;45.60;;;;;;5030658;28;20025;-43
2021/05/09 12:05:14;;;;;;;1.60;0.90;;;22.20;45.60;;;;;;5026610;28;20029;-35
2021/05/09 12:07:59;;;;;;;2.35;0.68;;;22.20;45.70;;;;;;5029098;28;20480;-35
2021/05/09 12:10:25;;;;;;;1.13;0.68;;;22.20;45.70;;;;;;5030005;28;20033;-34
2021/05/09 12:13:04;;;;;;;2.10;0.80;;;22.20;45.60;;;;;;5030125;28;20025;-35
2021/05/09 12:15:40;;;;;;;1.17;0.60;;;22.20;45.60;;;;;;5031737;28;20025;-34
2021/05/09 12:18:07;;;;;;;1.60;0.70;;;22.20;45.60;;;;;;5029454;28;20025;-35
2021/05/09 12:20:37;;;;;;;1.25;0.80;;;22.20;45.60;;;;;;5051437;28;20342;-34
2021/05/09 12:23:05;;;;;;;0.82;0.55;;;22.20;45.60;;;;;;5043279;28;20470;-34
2021/05/09 12:25:42;;;;;;;1.58;0.63;;;22.30;45.50;;;;;;5030656;28;20061;-34
2021/05/09 12:28:20;;;;;;;1.00;0.60;;;22.30;45.50;;;;;;5028535;28;20429;-35
2021/05/09 12:30:48;;;;;;;0.60;0.60;;;22.30;45.50;;;;;;5030714;28;20032;-35
2021/05/09 12:33:28;;;;;;;1.35;0.70;;;22.30;45.40;;;;;;5028665;28;20107;-34
2021/05/09 12:35:57;;;;;;;1.45;0.65;;;22.30;45.40;;;;;;5029144;28;20026;-34
2021/05/09 12:38:24;;;;;;;1.00;0.60;;;22.30;45.40;;;;;;5031155;28;20093;-35
2021/05/09 12:41:08;;;;;;;1.10;0.80;;;22.30;45.80;;;;;;5030261;28;20056;-36
2021/05/09 12:43:50;;;;;;;3.30;0.73;;;22.50;45.50;;;;;;5027414;28;20091;-34
2021/05/09 12:46:47;;;;;;;3.10;0.70;;;22.80;41.80;;;;;;5031357;28;20372;-34
2021/05/09 12:49:33;;;;;;;1.23;0.60;;;23.00;39.70;;;;;;5022494;28;20053;-46
2021/05/09 12:52:06;;;;;;;2.15;0.63;;;23.30;37.70;;;;;;5028109;28;20043;-34
2021/05/09 12:54:49;;;;;;;2.05;1.05;;;23.40;37.30;;;;;;5029544;28;20042;-43